sensor_id;sensor_type;location;lat;lon;timestamp;temperature;humidity
9949;DHT22;5013;51.840;8.276;2023-05-14T00:01:49;13.40;99.90
9949;DHT22;5013;51.840;8.276;2023-05-14T00:04:16;13.40;1.00
9949;DHT22;5013;51.840;8.276;2023-05-14T00:06:44;13.30;1.00
9949;DHT22;5013;51.840;8.276;2023-05-14T00:09:09;13.20;99.90
9949;DHT22;5013;51.840;8.276;2023-05-14T00:11:35;13.20;1.00
9949;DHT22;5013;51.840;8.276;2023-05-14T00:14:01;13.20;1.00
9949;DHT22;5013;51.840;8.276;2023-05-14T00:16:26;13.20;1.00
9949;DHT22;5013;51.840;8.276;2023-05-14T00:18:52;13.10;1.00
9949;DHT22;5013;51.840;8.276;2023-05-14T00:21:17;13.10;1.00
9949;DHT22;5013;51.840;8.276;2023-05-14T00:23:43;13.00;44.40
9949;DHT22;5013;51.840;8.276;2023-05-14T00:26:08;13.00;1.00
9949;DHT22;5013;51.840;8.276;2023-05-14T00:28:34;12.80;99.90
9949;DHT22;5013;51.840;8.276;2023-05-14T00:30:59;12.80;99.90
9949;DHT22;5013;51.840;8.276;2023-05-14T00:33:25;12.80;99.90
9949;DHT22;5013;51.840;8.276;2023-05-14T00:35:51;12.80;99.90
9949;DHT22;5013;51.840;8.276;2023-05-14T00:38:16;12.80;99.90
9949;DHT22;5013;51.840;8.276;2023-05-14T00:40:44;12.60;99.90
9949;DHT22;5013;51.840;8.276;2023-05-14T00:43:14;12.50;1.00
9949;DHT22;5013;51.840;8.276;2023-05-14T00:45:40;12.50;1.00
9949;DHT22;5013;51.840;8.276;2023-05-14T00:48:06;12.50;1.00
9949;DHT22;5013;51.840;8.276;2023-05-14T00:50:32;12.50;1.00
9949;DHT22;5013;51.840;8.276;2023-05-14T00:52:59;12.50;1.00
9949;DHT22;5013;51.840;8.276;2023-05-14T00:55:25;12.50;1.00
9949;DHT22;5013;51.840;8.276;2023-05-14T00:57:52;12.50;1.00
9949;DHT22;5013;51.840;8.276;2023-05-14T01:00:19;12.50;1.00
9949;DHT22;5013;51.840;8.276;2023-05-14T01:02:45;12.50;1.00
9949;DHT22;5013;51.840;8.276;2023-05-14T01:05:10;12.50;99.90
9949;DHT22;5013;51.840;8.276;2023-05-14T01:08:29;12.40;1.00
9949;DHT22;5013;51.840;8.276;2023-05-14T01:10:57;12.40;1.00
9949;DHT22;5013;51.840;8.276;2023-05-14T01:13:43;12.30;1.00
9949;DHT22;5013;51.840;8.276;2023-05-14T01:16:12;12.20;1.00
9949;DHT22;5013;51.840;8.276;2023-05-14T01:18:39;12.20;1.00
9949;DHT22;5013;51.840;8.276;2023-05-14T01:21:22;12.20;1.00
9949;DHT22;5013;51.840;8.276;2023-05-14T01:23:48;12.10;1.00
9949;DHT22;5013;51.840;8.276;2023-05-14T01:26:14;12.10;1.00
9949;DHT22;5013;51.840;8.276;2023-05-14T01:28:39;12.10;1.00
9949;DHT22;5013;51.840;8.276;2023-05-14T01:31:08;12.00;1.00
9949;DHT22;5013;51.840;8.276;2023-05-14T01:33:36;12.10;1.00
9949;DHT22;5013;51.840;8.276;2023-05-14T01:36:02;12.00;1.00
9949;DHT22;5013;51.840;8.276;2023-05-14T01:38:28;12.00;1.00
9949;DHT22;5013;51.840;8.276;2023-05-14T01:40:56;12.00;1.00
9949;DHT22;5013;51.840;8.276;2023-05-14T01:43:23;12.00;1.00
9949;DHT22;5013;51.840;8.276;2023-05-14T01:45:48;12.00;1.00
9949;DHT22;5013;51.840;8.276;2023-05-14T01:48:14;11.90;1.00
9949;DHT22;5013;51.840;8.276;2023-05-14T01:50:40;11.90;18.20
9949;DHT22;5013;51.840;8.276;2023-05-14T01:53:05;11.80;20.50
9949;DHT22;5013;51.840;8.276;2023-05-14T01:55:31;11.80;99.90
9949;DHT22;5013;51.840;8.276;2023-05-14T01:57:56;11.70;96.90
9949;DHT22;5013;51.840;8.276;2023-05-14T02:00:23;11.70;99.90
9949;DHT22;5013;51.840;8.276;2023-05-14T02:02:50;11.70;99.90
9949;DHT22;5013;51.840;8.276;2023-05-14T02:05:15;11.60;99.90
9949;DHT22;5013;51.840;8.276;2023-05-14T02:07:41;11.60;99.90
9949;DHT22;5013;51.840;8.276;2023-05-14T02:10:07;11.70;99.90
9949;DHT22;5013;51.840;8.276;2023-05-14T02:12:33;11.60;99.90
9949;DHT22;5013;51.840;8.276;2023-05-14T02:14:58;11.60;99.90
9949;DHT22;5013;51.840;8.276;2023-05-14T02:17:25;11.50;99.90
9949;DHT22;5013;51.840;8.276;2023-05-14T02:19:50;11.40;99.90
9949;DHT22;5013;51.840;8.276;2023-05-14T02:22:16;11.40;1.00
9949;DHT22;5013;51.840;8.276;2023-05-14T02:24:41;11.50;99.90
9949;DHT22;5013;51.840;8.276;2023-05-14T02:27:07;11.40;1.00
9949;DHT22;5013;51.840;8.276;2023-05-14T02:29:33;11.40;99.90
9949;DHT22;5013;51.840;8.276;2023-05-14T02:31:58;11.40;99.90
9949;DHT22;5013;51.840;8.276;2023-05-14T02:34:24;11.40;99.90
9949;DHT22;5013;51.840;8.276;2023-05-14T02:36:49;11.30;1.00
9949;DHT22;5013;51.840;8.276;2023-05-14T02:39:15;11.20;1.00
9949;DHT22;5013;51.840;8.276;2023-05-14T02:41:40;11.20;1.00
9949;DHT22;5013;51.840;8.276;2023-05-14T02:44:06;11.20;1.00
9949;DHT22;5013;51.840;8.276;2023-05-14T02:46:32;11.20;1.00
9949;DHT22;5013;51.840;8.276;2023-05-14T02:48:57;11.20;1.00
9949;DHT22;5013;51.840;8.276;2023-05-14T02:51:23;11.20;1.00
9949;DHT22;5013;51.840;8.276;2023-05-14T02:53:49;11.10;1.00
9949;DHT22;5013;51.840;8.276;2023-05-14T02:56:14;11.00;1.00
9949;DHT22;5013;51.840;8.276;2023-05-14T02:58:40;11.00;1.00
9949;DHT22;5013;51.840;8.276;2023-05-14T03:01:05;11.00;1.00
9949;DHT22;5013;51.840;8.276;2023-05-14T03:03:31;11.00;1.00
9949;DHT22;5013;51.840;8.276;2023-05-14T03:05:57;10.90;1.00
9949;DHT22;5013;51.840;8.276;2023-05-14T03:08:23;10.90;99.90
9949;DHT22;5013;51.840;8.276;2023-05-14T03:10:48;10.80;70.80
9949;DHT22;5013;51.840;8.276;2023-05-14T03:13:14;10.90;32.10
9949;DHT22;5013;51.840;8.276;2023-05-14T03:15:44;10.90;69.50
9949;DHT22;5013;51.840;8.276;2023-05-14T03:18:11;10.90;1.00
9949;DHT22;5013;51.840;8.276;2023-05-14T03:20:37;10.90;1.00
9949;DHT22;5013;51.840;8.276;2023-05-14T03:23:03;10.90;1.00
9949;DHT22;5013;51.840;8.276;2023-05-14T03:25:28;10.80;1.00
9949;DHT22;5013;51.840;8.276;2023-05-14T03:27:54;10.80;99.90
9949;DHT22;5013;51.840;8.276;2023-05-14T03:30:19;10.80;86.40
9949;DHT22;5013;51.840;8.276;2023-05-14T03:32:45;10.90;99.90
9949;DHT22;5013;51.840;8.276;2023-05-14T03:35:11;10.90;1.00
9949;DHT22;5013;51.840;8.276;2023-05-14T03:37:36;10.90;1.00
9949;DHT22;5013;51.840;8.276;2023-05-14T03:40:02;10.70;90.20
9949;DHT22;5013;51.840;8.276;2023-05-14T03:42:27;10.70;99.90
9949;DHT22;5013;51.840;8.276;2023-05-14T03:44:53;10.80;99.90
9949;DHT22;5013;51.840;8.276;2023-05-14T03:47:18;10.70;1.00
9949;DHT22;5013;51.840;8.276;2023-05-14T03:49:44;10.80;99.90
9949;DHT22;5013;51.840;8.276;2023-05-14T03:52:09;10.80;99.90
9949;DHT22;5013;51.840;8.276;2023-05-14T03:54:35;10.80;1.00
9949;DHT22;5013;51.840;8.276;2023-05-14T03:57:01;10.80;99.90
9949;DHT22;5013;51.840;8.276;2023-05-14T03:59:26;10.70;91.70
9949;DHT22;5013;51.840;8.276;2023-05-14T04:01:52;10.70;99.90
9949;DHT22;5013;51.840;8.276;2023-05-14T04:04:17;10.70;99.90
9949;DHT22;5013;51.840;8.276;2023-05-14T04:06:43;10.70;1.00
9949;DHT22;5013;51.840;8.276;2023-05-14T04:09:09;10.70;99.90
9949;DHT22;5013;51.840;8.276;2023-05-14T04:11:35;10.80;99.90
9949;DHT22;5013;51.840;8.276;2023-05-14T04:14:01;10.80;99.90
9949;DHT22;5013;51.840;8.276;2023-05-14T04:16:26;10.70;1.00
9949;DHT22;5013;51.840;8.276;2023-05-14T04:18:52;10.80;1.00
9949;DHT22;5013;51.840;8.276;2023-05-14T04:21:17;10.90;92.30
9949;DHT22;5013;51.840;8.276;2023-05-14T04:23:43;11.00;99.90
9949;DHT22;5013;51.840;8.276;2023-05-14T04:26:09;11.10;99.90
9949;DHT22;5013;51.840;8.276;2023-05-14T04:28:34;11.00;1.00
9949;DHT22;5013;51.840;8.276;2023-05-14T04:31:00;11.10;99.90
9949;DHT22;5013;51.840;8.276;2023-05-14T04:33:25;11.30;1.00
9949;DHT22;5013;51.840;8.276;2023-05-14T04:35:51;11.30;1.00
9949;DHT22;5013;51.840;8.276;2023-05-14T04:38:17;11.30;1.00
9949;DHT22;5013;51.840;8.276;2023-05-14T04:40:42;11.60;23.00
9949;DHT22;5013;51.840;8.276;2023-05-14T04:43:08;12.70;1.00
9949;DHT22;5013;51.840;8.276;2023-05-14T04:45:34;13.30;1.00
9949;DHT22;5013;51.840;8.276;2023-05-14T04:47:59;13.80;99.90
9949;DHT22;5013;51.840;8.276;2023-05-14T04:50:25;14.10;11.10
9949;DHT22;5013;51.840;8.276;2023-05-14T04:52:51;14.60;1.00
9949;DHT22;5013;51.840;8.276;2023-05-14T04:55:16;15.80;1.00
9949;DHT22;5013;51.840;8.276;2023-05-14T04:57:42;16.40;1.00
9949;DHT22;5013;51.840;8.276;2023-05-14T05:00:08;16.90;1.00
9949;DHT22;5013;51.840;8.276;2023-05-14T05:02:34;17.40;99.90
9949;DHT22;5013;51.840;8.276;2023-05-14T05:05:02;17.20;99.90
9949;DHT22;5013;51.840;8.276;2023-05-14T05:07:28;16.90;1.00
9949;DHT22;5013;51.840;8.276;2023-05-14T05:09:54;17.00;1.00
9949;DHT22;5013;51.840;8.276;2023-05-14T05:12:19;17.00;1.00
9949;DHT22;5013;51.840;8.276;2023-05-14T05:14:45;16.80;1.00
9949;DHT22;5013;51.840;8.276;2023-05-14T05:17:11;16.40;1.00
9949;DHT22;5013;51.840;8.276;2023-05-14T05:19:37;16.30;1.00
9949;DHT22;5013;51.840;8.276;2023-05-14T05:22:02;15.90;1.00
9949;DHT22;5013;51.840;8.276;2023-05-14T05:24:28;15.40;99.90
9949;DHT22;5013;51.840;8.276;2023-05-14T05:26:53;15.60;99.90
9949;DHT22;5013;51.840;8.276;2023-05-14T05:29:20;16.00;93.80
9949;DHT22;5013;51.840;8.276;2023-05-14T05:31:47;16.20;53.50
9949;DHT22;5013;51.840;8.276;2023-05-14T05:34:12;16.10;21.60
9949;DHT22;5013;51.840;8.276;2023-05-14T05:36:38;15.70;99.90
9949;DHT22;5013;51.840;8.276;2023-05-14T05:39:03;15.00;1.00
9949;DHT22;5013;51.840;8.276;2023-05-14T05:41:29;15.20;99.90
9949;DHT22;5013;51.840;8.276;2023-05-14T05:43:55;15.50;1.00
9949;DHT22;5013;51.840;8.276;2023-05-14T05:46:20;15.90;99.90
9949;DHT22;5013;51.840;8.276;2023-05-14T05:48:46;15.90;99.90
9949;DHT22;5013;51.840;8.276;2023-05-14T05:51:11;16.10;99.90
9949;DHT22;5013;51.840;8.276;2023-05-14T05:53:37;16.30;99.90
9949;DHT22;5013;51.840;8.276;2023-05-14T05:56:02;16.20;91.90
9949;DHT22;5013;51.840;8.276;2023-05-14T05:58:28;16.50;99.90
9949;DHT22;5013;51.840;8.276;2023-05-14T06:00:54;16.80;54.20
9949;DHT22;5013;51.840;8.276;2023-05-14T06:03:21;16.60;92.80
9949;DHT22;5013;51.840;8.276;2023-05-14T06:05:47;16.60;99.90
9949;DHT22;5013;51.840;8.276;2023-05-14T06:08:13;16.70;36.50
9949;DHT22;5013;51.840;8.276;2023-05-14T06:10:38;16.50;99.90
9949;DHT22;5013;51.840;8.276;2023-05-14T06:13:04;16.50;1.00
9949;DHT22;5013;51.840;8.276;2023-05-14T06:15:29;16.30;99.90
9949;DHT22;5013;51.840;8.276;2023-05-14T06:17:55;16.00;1.00
9949;DHT22;5013;51.840;8.276;2023-05-14T06:20:20;16.00;1.00
9949;DHT22;5013;51.840;8.276;2023-05-14T06:22:46;15.90;1.00
9949;DHT22;5013;51.840;8.276;2023-05-14T06:25:11;15.80;43.50
9949;DHT22;5013;51.840;8.276;2023-05-14T06:27:37;15.80;50.10
9949;DHT22;5013;51.840;8.276;2023-05-14T06:30:03;15.90;99.90
9949;DHT22;5013;51.840;8.276;2023-05-14T06:32:28;16.10;1.00
9949;DHT22;5013;51.840;8.276;2023-05-14T06:34:54;16.20;99.90
9949;DHT22;5013;51.840;8.276;2023-05-14T06:37:19;16.30;1.00
9949;DHT22;5013;51.840;8.276;2023-05-14T06:39:45;16.30;99.90
9949;DHT22;5013;51.840;8.276;2023-05-14T06:42:15;16.40;1.00
9949;DHT22;5013;51.840;8.276;2023-05-14T06:44:40;16.70;1.00
9949;DHT22;5013;51.840;8.276;2023-05-14T06:47:06;16.80;1.00
9949;DHT22;5013;51.840;8.276;2023-05-14T06:49:33;16.90;99.90
9949;DHT22;5013;51.840;8.276;2023-05-14T06:51:59;17.00;99.90
9949;DHT22;5013;51.840;8.276;2023-05-14T06:54:24;17.00;99.90
9949;DHT22;5013;51.840;8.276;2023-05-14T06:56:50;17.30;99.90
9949;DHT22;5013;51.840;8.276;2023-05-14T06:59:16;17.70;35.80
9949;DHT22;5013;51.840;8.276;2023-05-14T07:01:41;17.70;1.00
9949;DHT22;5013;51.840;8.276;2023-05-14T07:04:07;17.60;1.00
9949;DHT22;5013;51.840;8.276;2023-05-14T07:06:32;17.60;1.00
9949;DHT22;5013;51.840;8.276;2023-05-14T07:08:59;17.40;1.00
9949;DHT22;5013;51.840;8.276;2023-05-14T07:11:25;16.90;99.90
9949;DHT22;5013;51.840;8.276;2023-05-14T07:13:51;16.90;99.90
9949;DHT22;5013;51.840;8.276;2023-05-14T07:16:16;17.00;1.00
9949;DHT22;5013;51.840;8.276;2023-05-14T07:18:43;17.20;99.90
9949;DHT22;5013;51.840;8.276;2023-05-14T07:21:08;17.40;99.90
9949;DHT22;5013;51.840;8.276;2023-05-14T07:23:34;17.80;99.90
9949;DHT22;5013;51.840;8.276;2023-05-14T07:26:01;18.30;1.00
9949;DHT22;5013;51.840;8.276;2023-05-14T07:28:27;18.80;1.00
9949;DHT22;5013;51.840;8.276;2023-05-14T07:30:53;18.60;1.00
9949;DHT22;5013;51.840;8.276;2023-05-14T07:33:18;18.90;1.00
9949;DHT22;5013;51.840;8.276;2023-05-14T07:35:44;19.10;1.00
9949;DHT22;5013;51.840;8.276;2023-05-14T07:38:10;19.40;1.00
9949;DHT22;5013;51.840;8.276;2023-05-14T07:40:35;19.60;99.90
9949;DHT22;5013;51.840;8.276;2023-05-14T07:43:01;19.90;99.90
9949;DHT22;5013;51.840;8.276;2023-05-14T07:45:26;19.80;99.90
9949;DHT22;5013;51.840;8.276;2023-05-14T07:47:52;19.60;99.90
9949;DHT22;5013;51.840;8.276;2023-05-14T07:50:18;19.80;99.90
9949;DHT22;5013;51.840;8.276;2023-05-14T07:52:44;19.60;99.90
9949;DHT22;5013;51.840;8.276;2023-05-14T07:55:10;19.50;99.90
9949;DHT22;5013;51.840;8.276;2023-05-14T07:57:36;19.60;99.90
9949;DHT22;5013;51.840;8.276;2023-05-14T08:00:03;19.60;99.90
9949;DHT22;5013;51.840;8.276;2023-05-14T08:02:29;19.70;99.90
9949;DHT22;5013;51.840;8.276;2023-05-14T08:04:54;19.70;99.90
9949;DHT22;5013;51.840;8.276;2023-05-14T08:07:20;19.70;99.90
9949;DHT22;5013;51.840;8.276;2023-05-14T08:09:46;19.50;99.90
9949;DHT22;5013;51.840;8.276;2023-05-14T08:12:11;19.70;99.90
9949;DHT22;5013;51.840;8.276;2023-05-14T08:14:37;20.20;99.90
9949;DHT22;5013;51.840;8.276;2023-05-14T08:17:02;20.50;99.90
9949;DHT22;5013;51.840;8.276;2023-05-14T08:19:28;20.60;99.90
9949;DHT22;5013;51.840;8.276;2023-05-14T08:21:54;20.90;99.90
9949;DHT22;5013;51.840;8.276;2023-05-14T08:24:19;21.00;99.90
9949;DHT22;5013;51.840;8.276;2023-05-14T08:26:45;21.30;99.90
9949;DHT22;5013;51.840;8.276;2023-05-14T08:29:10;21.40;99.90
9949;DHT22;5013;51.840;8.276;2023-05-14T08:31:36;21.10;56.40
9949;DHT22;5013;51.840;8.276;2023-05-14T08:34:02;21.10;99.90
9949;DHT22;5013;51.840;8.276;2023-05-14T08:36:27;21.30;99.90
9949;DHT22;5013;51.840;8.276;2023-05-14T08:38:53;21.30;99.00
9949;DHT22;5013;51.840;8.276;2023-05-14T08:41:19;21.10;99.90
9949;DHT22;5013;51.840;8.276;2023-05-14T08:46:16;21.40;64.30
9949;DHT22;5013;51.840;8.276;2023-05-14T08:48:42;21.30;46.20
9949;DHT22;5013;51.840;8.276;2023-05-14T08:51:10;21.30;94.50
9949;DHT22;5013;51.840;8.276;2023-05-14T08:53:36;21.60;24.30
9949;DHT22;5013;51.840;8.276;2023-05-14T08:56:03;21.50;25.90
9949;DHT22;5013;51.840;8.276;2023-05-14T08:58:29;21.70;1.40
9949;DHT22;5013;51.840;8.276;2023-05-14T09:00:55;21.70;25.50
9949;DHT22;5013;51.840;8.276;2023-05-14T09:03:21;21.50;38.40
9949;DHT22;5013;51.840;8.276;2023-05-14T09:05:48;21.30;27.00
9949;DHT22;5013;51.840;8.276;2023-05-14T09:08:15;21.80;27.60
9949;DHT22;5013;51.840;8.276;2023-05-14T09:10:41;22.20;6.10
9949;DHT22;5013;51.840;8.276;2023-05-14T09:13:06;22.30;1.00
9949;DHT22;5013;51.840;8.276;2023-05-14T09:15:35;22.30;1.00
9949;DHT22;5013;51.840;8.276;2023-05-14T09:18:04;22.40;1.00
9949;DHT22;5013;51.840;8.276;2023-05-14T09:20:30;22.30;1.00
9949;DHT22;5013;51.840;8.276;2023-05-14T09:22:57;22.00;1.00
9949;DHT22;5013;51.840;8.276;2023-05-14T09:25:30;22.40;1.00
9949;DHT22;5013;51.840;8.276;2023-05-14T09:27:56;22.30;1.00
9949;DHT22;5013;51.840;8.276;2023-05-14T09:30:24;22.30;1.00
9949;DHT22;5013;51.840;8.276;2023-05-14T09:32:52;22.30;1.00
9949;DHT22;5013;51.840;8.276;2023-05-14T09:35:20;22.60;1.00
9949;DHT22;5013;51.840;8.276;2023-05-14T09:37:48;22.70;1.00
9949;DHT22;5013;51.840;8.276;2023-05-14T09:40:14;22.90;1.00
9949;DHT22;5013;51.840;8.276;2023-05-14T09:42:40;23.00;1.00
9949;DHT22;5013;51.840;8.276;2023-05-14T09:45:09;23.20;1.00
9949;DHT22;5013;51.840;8.276;2023-05-14T09:47:36;22.90;1.00
9949;DHT22;5013;51.840;8.276;2023-05-14T09:50:03;23.10;1.00
9949;DHT22;5013;51.840;8.276;2023-05-14T09:52:29;23.20;1.00
9949;DHT22;5013;51.840;8.276;2023-05-14T09:54:55;23.20;1.00
9949;DHT22;5013;51.840;8.276;2023-05-14T09:57:21;23.40;1.00
9949;DHT22;5013;51.840;8.276;2023-05-14T09:59:47;23.10;1.00
9949;DHT22;5013;51.840;8.276;2023-05-14T10:02:25;23.00;1.00
9949;DHT22;5013;51.840;8.276;2023-05-14T10:04:53;22.90;1.00
9949;DHT22;5013;51.840;8.276;2023-05-14T10:07:24;23.10;1.00
9949;DHT22;5013;51.840;8.276;2023-05-14T10:09:58;23.50;1.00
9949;DHT22;5013;51.840;8.276;2023-05-14T10:12:35;23.60;1.00
9949;DHT22;5013;51.840;8.276;2023-05-14T10:15:08;23.50;1.00
9949;DHT22;5013;51.840;8.276;2023-05-14T10:17:39;23.40;1.00
9949;DHT22;5013;51.840;8.276;2023-05-14T10:20:07;23.80;1.00
9949;DHT22;5013;51.840;8.276;2023-05-14T10:22:34;23.70;1.00
9949;DHT22;5013;51.840;8.276;2023-05-14T10:25:01;23.60;1.00
9949;DHT22;5013;51.840;8.276;2023-05-14T10:27:27;24.10;1.00
9949;DHT22;5013;51.840;8.276;2023-05-14T10:29:54;24.00;1.00
9949;DHT22;5013;51.840;8.276;2023-05-14T10:32:21;24.20;1.00
9949;DHT22;5013;51.840;8.276;2023-05-14T10:34:49;24.20;1.00
9949;DHT22;5013;51.840;8.276;2023-05-14T10:37:17;24.00;1.00
9949;DHT22;5013;51.840;8.276;2023-05-14T10:40:00;24.40;1.00
9949;DHT22;5013;51.840;8.276;2023-05-14T10:42:31;24.10;1.00
9949;DHT22;5013;51.840;8.276;2023-05-14T10:44:59;24.10;1.00
9949;DHT22;5013;51.840;8.276;2023-05-14T10:47:30;24.20;1.00
9949;DHT22;5013;51.840;8.276;2023-05-14T10:50:02;23.70;1.00
9949;DHT22;5013;51.840;8.276;2023-05-14T10:52:28;23.50;1.00
9949;DHT22;5013;51.840;8.276;2023-05-14T10:54:58;23.60;1.00
9949;DHT22;5013;51.840;8.276;2023-05-14T10:57:26;24.00;1.00
9949;DHT22;5013;51.840;8.276;2023-05-14T10:59:53;24.40;1.00
9949;DHT22;5013;51.840;8.276;2023-05-14T11:02:27;24.40;1.00
9949;DHT22;5013;51.840;8.276;2023-05-14T11:05:04;24.10;1.00
9949;DHT22;5013;51.840;8.276;2023-05-14T11:07:35;24.30;1.00
9949;DHT22;5013;51.840;8.276;2023-05-14T11:12:32;24.00;1.00
9949;DHT22;5013;51.840;8.276;2023-05-14T11:15:02;24.10;1.00
9949;DHT22;5013;51.840;8.276;2023-05-14T11:17:29;23.90;1.00
9949;DHT22;5013;51.840;8.276;2023-05-14T11:19:56;23.60;1.00
9949;DHT22;5013;51.840;8.276;2023-05-14T11:22:22;23.30;1.00
9949;DHT22;5013;51.840;8.276;2023-05-14T11:24:48;23.40;1.00
9949;DHT22;5013;51.840;8.276;2023-05-14T11:27:14;23.60;1.00
9949;DHT22;5013;51.840;8.276;2023-05-14T11:29:44;23.70;1.00
9949;DHT22;5013;51.840;8.276;2023-05-14T11:32:11;23.80;1.00
9949;DHT22;5013;51.840;8.276;2023-05-14T11:34:37;24.00;1.00
9949;DHT22;5013;51.840;8.276;2023-05-14T11:37:03;24.30;1.00
9949;DHT22;5013;51.840;8.276;2023-05-14T11:39:30;24.50;1.00
9949;DHT22;5013;51.840;8.276;2023-05-14T11:41:58;24.20;1.00
9949;DHT22;5013;51.840;8.276;2023-05-14T11:44:23;24.00;1.00
9949;DHT22;5013;51.840;8.276;2023-05-14T11:46:54;23.50;1.00
9949;DHT22;5013;51.840;8.276;2023-05-14T11:49:23;23.20;1.00
9949;DHT22;5013;51.840;8.276;2023-05-14T11:52:00;23.10;1.00
9949;DHT22;5013;51.840;8.276;2023-05-14T11:54:27;23.40;1.00
9949;DHT22;5013;51.840;8.276;2023-05-14T11:56:56;23.80;1.00
9949;DHT22;5013;51.840;8.276;2023-05-14T11:59:30;23.50;1.00
9949;DHT22;5013;51.840;8.276;2023-05-14T12:02:00;23.40;1.00
9949;DHT22;5013;51.840;8.276;2023-05-14T12:04:25;23.60;1.00
9949;DHT22;5013;51.840;8.276;2023-05-14T12:06:53;23.60;1.00
9949;DHT22;5013;51.840;8.276;2023-05-14T12:09:20;23.60;1.00
9949;DHT22;5013;51.840;8.276;2023-05-14T12:11:47;23.50;1.00
9949;DHT22;5013;51.840;8.276;2023-05-14T12:14:16;23.50;1.00
9949;DHT22;5013;51.840;8.276;2023-05-14T12:16:43;23.60;1.00
9949;DHT22;5013;51.840;8.276;2023-05-14T12:19:10;23.50;1.00
9949;DHT22;5013;51.840;8.276;2023-05-14T12:21:36;23.40;1.00
9949;DHT22;5013;51.840;8.276;2023-05-14T12:24:02;22.90;1.00
9949;DHT22;5013;51.840;8.276;2023-05-14T12:26:31;22.60;1.00
9949;DHT22;5013;51.840;8.276;2023-05-14T12:29:02;22.40;1.00
9949;DHT22;5013;51.840;8.276;2023-05-14T12:31:34;22.20;1.00
9949;DHT22;5013;51.840;8.276;2023-05-14T12:34:01;21.90;1.00
9949;DHT22;5013;51.840;8.276;2023-05-14T12:36:27;21.90;1.00
9949;DHT22;5013;51.840;8.276;2023-05-14T12:39:00;22.00;1.00
9949;DHT22;5013;51.840;8.276;2023-05-14T12:41:29;22.00;1.00
9949;DHT22;5013;51.840;8.276;2023-05-14T12:43:55;22.00;1.00
9949;DHT22;5013;51.840;8.276;2023-05-14T12:46:21;22.10;1.00
9949;DHT22;5013;51.840;8.276;2023-05-14T12:48:47;22.20;1.00
9949;DHT22;5013;51.840;8.276;2023-05-14T12:51:13;22.20;1.00
9949;DHT22;5013;51.840;8.276;2023-05-14T12:53:38;22.30;1.00
9949;DHT22;5013;51.840;8.276;2023-05-14T12:56:05;22.60;1.00
9949;DHT22;5013;51.840;8.276;2023-05-14T12:58:30;22.70;1.00
9949;DHT22;5013;51.840;8.276;2023-05-14T13:00:56;22.70;1.00
9949;DHT22;5013;51.840;8.276;2023-05-14T13:03:22;22.30;1.00
9949;DHT22;5013;51.840;8.276;2023-05-14T13:05:47;21.90;1.00
9949;DHT22;5013;51.840;8.276;2023-05-14T13:08:13;21.70;1.00
9949;DHT22;5013;51.840;8.276;2023-05-14T13:10:43;21.80;1.00
9949;DHT22;5013;51.840;8.276;2023-05-14T13:13:09;22.00;1.00
9949;DHT22;5013;51.840;8.276;2023-05-14T13:15:36;22.00;1.00
9949;DHT22;5013;51.840;8.276;2023-05-14T13:18:03;21.80;1.00
9949;DHT22;5013;51.840;8.276;2023-05-14T13:20:29;22.00;1.00
9949;DHT22;5013;51.840;8.276;2023-05-14T13:22:56;22.20;1.00
9949;DHT22;5013;51.840;8.276;2023-05-14T13:25:22;22.50;1.00
9949;DHT22;5013;51.840;8.276;2023-05-14T13:27:47;22.80;1.00
9949;DHT22;5013;51.840;8.276;2023-05-14T13:30:16;22.90;1.00
9949;DHT22;5013;51.840;8.276;2023-05-14T13:32:42;22.80;1.00
9949;DHT22;5013;51.840;8.276;2023-05-14T13:35:08;22.60;1.00
9949;DHT22;5013;51.840;8.276;2023-05-14T13:37:34;22.50;1.00
9949;DHT22;5013;51.840;8.276;2023-05-14T13:40:00;22.50;1.00
9949;DHT22;5013;51.840;8.276;2023-05-14T13:42:25;22.70;1.00
9949;DHT22;5013;51.840;8.276;2023-05-14T13:44:51;22.90;1.00
9949;DHT22;5013;51.840;8.276;2023-05-14T13:47:17;22.70;1.00
9949;DHT22;5013;51.840;8.276;2023-05-14T13:49:42;22.60;1.00
9949;DHT22;5013;51.840;8.276;2023-05-14T13:52:08;22.80;1.00
9949;DHT22;5013;51.840;8.276;2023-05-14T13:54:33;22.80;1.00
9949;DHT22;5013;51.840;8.276;2023-05-14T13:56:59;22.90;1.00
9949;DHT22;5013;51.840;8.276;2023-05-14T13:59:24;23.00;1.00
9949;DHT22;5013;51.840;8.276;2023-05-14T14:01:50;22.70;1.00
9949;DHT22;5013;51.840;8.276;2023-05-14T14:04:16;22.70;1.00
9949;DHT22;5013;51.840;8.276;2023-05-14T14:06:42;22.80;1.00
9949;DHT22;5013;51.840;8.276;2023-05-14T14:09:08;22.90;1.00
9949;DHT22;5013;51.840;8.276;2023-05-14T14:11:34;23.10;1.00
9949;DHT22;5013;51.840;8.276;2023-05-14T14:14:00;23.20;1.00
9949;DHT22;5013;51.840;8.276;2023-05-14T14:16:25;23.20;1.00
9949;DHT22;5013;51.840;8.276;2023-05-14T14:18:51;23.20;1.00
9949;DHT22;5013;51.840;8.276;2023-05-14T14:21:16;23.40;1.00
9949;DHT22;5013;51.840;8.276;2023-05-14T14:23:46;23.40;1.00
9949;DHT22;5013;51.840;8.276;2023-05-14T14:26:12;23.60;1.00
9949;DHT22;5013;51.840;8.276;2023-05-14T14:28:37;23.40;1.00
9949;DHT22;5013;51.840;8.276;2023-05-14T14:31:04;23.70;1.00
9949;DHT22;5013;51.840;8.276;2023-05-14T14:33:30;23.80;1.00
9949;DHT22;5013;51.840;8.276;2023-05-14T14:35:56;24.20;1.00
9949;DHT22;5013;51.840;8.276;2023-05-14T14:38:21;24.40;1.00
9949;DHT22;5013;51.840;8.276;2023-05-14T14:40:47;24.40;1.00
9949;DHT22;5013;51.840;8.276;2023-05-14T14:43:12;24.40;1.00
9949;DHT22;5013;51.840;8.276;2023-05-14T14:45:38;24.30;1.00
9949;DHT22;5013;51.840;8.276;2023-05-14T14:48:39;24.10;1.00
9949;DHT22;5013;51.840;8.276;2023-05-14T14:51:06;24.00;1.00
9949;DHT22;5013;51.840;8.276;2023-05-14T14:53:33;24.00;1.00
9949;DHT22;5013;51.840;8.276;2023-05-14T14:55:59;24.10;1.00
9949;DHT22;5013;51.840;8.276;2023-05-14T14:58:25;24.10;1.00
9949;DHT22;5013;51.840;8.276;2023-05-14T15:00:53;23.90;1.00
9949;DHT22;5013;51.840;8.276;2023-05-14T15:03:20;23.70;1.00
9949;DHT22;5013;51.840;8.276;2023-05-14T15:05:46;23.80;1.00
9949;DHT22;5013;51.840;8.276;2023-05-14T15:08:12;23.80;1.00
9949;DHT22;5013;51.840;8.276;2023-05-14T15:10:38;23.60;1.00
9949;DHT22;5013;51.840;8.276;2023-05-14T15:13:05;23.60;1.00
9949;DHT22;5013;51.840;8.276;2023-05-14T15:15:32;23.50;1.00
9949;DHT22;5013;51.840;8.276;2023-05-14T15:17:58;23.40;1.00
9949;DHT22;5013;51.840;8.276;2023-05-14T15:20:24;23.30;1.00
9949;DHT22;5013;51.840;8.276;2023-05-14T15:22:50;23.10;1.00
9949;DHT22;5013;51.840;8.276;2023-05-14T15:25:17;23.00;1.00
9949;DHT22;5013;51.840;8.276;2023-05-14T15:27:43;23.00;1.00
9949;DHT22;5013;51.840;8.276;2023-05-14T15:30:09;23.10;1.00
9949;DHT22;5013;51.840;8.276;2023-05-14T15:32:35;23.10;1.00
9949;DHT22;5013;51.840;8.276;2023-05-14T15:35:01;22.90;1.00
9949;DHT22;5013;51.840;8.276;2023-05-14T15:37:26;22.80;1.00
9949;DHT22;5013;51.840;8.276;2023-05-14T15:39:52;22.60;1.00
9949;DHT22;5013;51.840;8.276;2023-05-14T15:42:18;22.30;1.00
9949;DHT22;5013;51.840;8.276;2023-05-14T15:44:44;21.90;1.00
9949;DHT22;5013;51.840;8.276;2023-05-14T15:47:10;21.80;1.00
9949;DHT22;5013;51.840;8.276;2023-05-14T15:49:36;21.60;1.00
9949;DHT22;5013;51.840;8.276;2023-05-14T15:52:01;21.40;1.00
9949;DHT22;5013;51.840;8.276;2023-05-14T15:54:27;21.20;1.00
9949;DHT22;5013;51.840;8.276;2023-05-14T15:56:54;21.00;1.00
9949;DHT22;5013;51.840;8.276;2023-05-14T15:59:20;21.20;1.00
9949;DHT22;5013;51.840;8.276;2023-05-14T16:01:45;21.10;1.00
9949;DHT22;5013;51.840;8.276;2023-05-14T16:04:11;21.00;1.00
9949;DHT22;5013;51.840;8.276;2023-05-14T16:06:37;21.10;1.00
9949;DHT22;5013;51.840;8.276;2023-05-14T16:09:06;21.20;1.00
9949;DHT22;5013;51.840;8.276;2023-05-14T16:11:32;21.10;1.00
9949;DHT22;5013;51.840;8.276;2023-05-14T16:13:57;21.10;1.00